Time;durP1;ratioP1;P1;durP2;ratioP2;P2;SDS_P1;SDS_P2;PMS_P1;PMS_P2;Temp;Humidity;BMP_temperature;BMP_pressure;BME280_temperature;BME280_humidity;BME280_pressure;Samples;Min_cycle;Max_cycle;Signal;HPM_P1;HPM_P2
2022/09/17 00:01:09;;;;;;;7.22;0.93;;;11.70;99.90;;;;;;6118305;23;20035;-86
2022/09/17 00:03:35;;;;;;;4.85;1.00;;;11.70;99.90;;;;;;6118944;23;20071;-83
2022/09/17 00:06:03;;;;;;;1.55;0.60;;;11.70;99.90;;;;;;6119347;23;20006;-89
2022/09/17 00:08:29;;;;;;;4.70;0.80;;;11.70;99.90;;;;;;6119392;23;20002;-84
2022/09/17 00:10:55;;;;;;;1.60;0.60;;;11.70;99.90;;;;;;6118272;23;20443;-83
2022/09/17 00:13:21;;;;;;;2.25;0.80;;;11.70;99.90;;;;;;6119150;23;20081;-86
2022/09/17 00:15:47;;;;;;;2.67;0.52;;;11.60;99.90;;;;;;6118877;23;20010;-85
2022/09/17 00:18:14;;;;;;;0.70;0.45;;;11.60;99.90;;;;;;6118649;23;20010;-86
2022/09/17 00:20:45;;;;;;;0.75;0.40;;;11.60;99.90;;;;;;6116522;23;20293;-84
2022/09/17 00:23:12;;;;;;;1.33;0.50;;;11.60;99.90;;;;;;6119771;23;20076;-89
2022/09/17 00:25:40;;;;;;;2.72;0.75;;;11.60;99.90;;;;;;6118416;23;20002;-86
2022/09/17 00:28:06;;;;;;;6.47;0.50;;;11.60;99.90;;;;;;6119114;23;19998;-86
2022/09/17 00:30:31;;;;;;;3.00;0.50;;;11.70;99.90;;;;;;6117014;23;20554;-86
2022/09/17 00:32:57;;;;;;;4.00;0.60;;;11.60;99.90;;;;;;6118423;23;20006;-87
2022/09/17 00:35:24;;;;;;;1.65;0.40;;;11.70;99.90;;;;;;6117535;23;20018;-85
2022/09/17 00:37:49;;;;;;;1.05;0.50;;;11.70;99.90;;;;;;6118843;23;20006;-84
2022/09/17 00:40:19;;;;;;;2.67;0.52;;;11.70;99.90;;;;;;6118689;23;20002;-82
2022/09/17 00:42:45;;;;;;;0.50;0.50;;;11.70;99.90;;;;;;6120003;23;20013;-88
2022/09/17 00:45:11;;;;;;;0.43;0.40;;;11.80;99.90;;;;;;6117764;23;20347;-84
2022/09/17 00:48:02;;;;;;;0.32;0.32;;;11.80;99.90;;;;;;6117416;23;20008;-83
2022/09/17 00:50:38;;;;;;;1.88;0.50;;;11.80;99.90;;;;;;6117029;23;20097;-85
2022/09/17 00:53:10;;;;;;;3.03;0.40;;;11.80;99.90;;;;;;6118727;23;20014;-83
2022/09/17 00:55:39;;;;;;;1.65;0.40;;;11.80;99.90;;;;;;6118373;23;20010;-86
2022/09/17 00:58:08;;;;;;;1.10;0.50;;;11.80;99.90;;;;;;6119341;23;20002;-83
2022/09/17 01:00:37;;;;;;;0.63;0.45;;;11.80;99.90;;;;;;6118327;23;20085;-85
2022/09/17 01:03:03;;;;;;;0.30;0.30;;;11.80;99.90;;;;;;6118004;23;20106;-85
2022/09/17 01:05:43;;;;;;;1.13;0.40;;;11.90;99.90;;;;;;6116989;23;20014;-86
2022/09/17 01:08:37;;;;;;;3.80;0.70;;;11.90;99.90;;;;;;6119217;23;20009;-86
2022/09/17 01:11:29;;;;;;;1.05;0.32;;;11.90;99.90;;;;;;6117298;23;20068;-88
2022/09/17 01:14:21;;;;;;;1.50;0.40;;;11.90;99.90;;;;;;6119291;23;20010;-89
2022/09/17 01:17:04;;;;;;;0.45;0.35;;;11.80;99.90;;;;;;6118217;23;20002;-89
2022/09/17 01:19:48;;;;;;;1.70;0.90;;;11.90;99.90;;;;;;6119413;23;20051;-87
2022/09/17 01:22:52;;;;;;;1.02;0.40;;;11.80;99.90;;;;;;6117173;23;20006;-85
2022/09/17 01:25:23;;;;;;;4.38;1.15;;;11.80;99.90;;;;;;6119178;23;19998;-87
2022/09/17 01:27:59;;;;;;;0.65;0.40;;;11.80;99.90;;;;;;6117579;23;20006;-85
2022/09/17 01:31:03;;;;;;;3.50;1.02;;;11.80;99.90;;;;;;6118966;23;20147;-86
2022/09/17 01:33:41;;;;;;;3.10;0.80;;;11.80;99.90;;;;;;6117132;23;20033;-86
2022/09/17 01:36:40;;;;;;;0.90;0.60;;;11.80;99.90;;;;;;6117769;23;19999;-85
2022/09/17 01:39:31;;;;;;;1.60;0.52;;;11.80;99.90;;;;;;6118819;23;20006;-83
2022/09/17 01:42:07;;;;;;;2.20;0.80;;;11.80;99.90;;;;;;6117680;23;20112;-85
2022/09/17 01:44:51;;;;;;;2.30;0.40;;;11.80;99.90;;;;;;6117931;23;20018;-87
2022/09/17 01:47:22;;;;;;;2.55;0.63;;;11.80;99.90;;;;;;6092340;23;20397;-88
2022/09/17 01:49:51;;;;;;;1.00;0.47;;;11.90;99.90;;;;;;6120018;23;20045;-87
2022/09/17 01:52:18;;;;;;;1.65;0.85;;;11.90;99.90;;;;;;6119311;23;20014;-89
2022/09/17 01:54:48;;;;;;;0.50;0.50;;;11.90;99.90;;;;;;6120207;23;20002;-85
2022/09/17 01:57:37;;;;;;;2.20;0.50;;;11.90;99.90;;;;;;6118220;23;20081;-88
2022/09/17 02:00:12;;;;;;;2.47;0.77;;;11.90;99.90;;;;;;6119813;23;20009;-87
2022/09/17 02:03:05;;;;;;;0.70;0.55;;;11.90;99.90;;;;;;6119090;23;20073;-85
2022/09/17 02:05:55;;;;;;;2.53;0.55;;;11.90;99.90;;;;;;6118229;23;20412;-87
2022/09/17 02:08:30;;;;;;;4.35;0.90;;;11.90;99.90;;;;;;6119716;23;20362;-83
2022/09/17 02:11:12;;;;;;;1.13;0.50;;;11.90;99.90;;;;;;6118589;23;20014;-88
2022/09/17 02:13:57;;;;;;;2.97;0.90;;;11.90;99.90;;;;;;6119033;23;20073;-87
2022/09/17 02:16:29;;;;;;;2.50;0.57;;;11.90;99.90;;;;;;6118986;23;20002;-88
2022/09/17 02:19:29;;;;;;;8.40;1.92;;;11.90;99.90;;;;;;6118748;23;20016;-84
2022/09/17 02:22:19;;;;;;;2.35;1.23;;;11.90;99.90;;;;;;6134885;23;20025;-88
2022/09/17 02:25:00;;;;;;;5.72;0.70;;;11.90;99.90;;;;;;6119350;23;20013;-87
2022/09/17 02:27:48;;;;;;;11.07;2.35;;;12.00;99.90;;;;;;6119183;23;20006;-82
2022/09/17 02:30:13;;;;;;;6.28;1.60;;;12.00;99.90;;;;;;6119426;23;20031;-84
2022/09/17 02:32:40;;;;;;;8.10;1.73;;;12.00;99.90;;;;;;6117501;23;20427;-85
2022/09/17 02:35:07;;;;;;;13.48;1.88;;;12.00;99.90;;;;;;6119672;23;20029;-85
2022/09/17 02:37:33;;;;;;;16.77;2.90;;;12.00;99.90;;;;;;6117403;23;20550;-88
2022/09/17 02:39:59;;;;;;;14.20;2.92;;;12.00;99.90;;;;;;6119322;23;20094;-84
2022/09/17 02:42:34;;;;;;;17.13;2.80;;;12.00;99.90;;;;;;6118698;23;20009;-84
2022/09/17 02:45:15;;;;;;;9.27;2.28;;;12.00;99.90;;;;;;6118703;23;20088;-88
2022/09/17 02:47:55;;;;;;;11.40;2.30;;;12.00;99.90;;;;;;6118555;23;20022;-83
2022/09/17 02:50:21;;;;;;;23.10;3.08;;;11.90;99.90;;;;;;6119304;23;20038;-83
2022/09/17 02:53:06;;;;;;;21.25;3.30;;;11.90;99.90;;;;;;6118646;23;20056;-85
2022/09/17 02:55:59;;;;;;;20.00;2.88;;;11.90;99.90;;;;;;6119606;23;20032;-85
2022/09/17 02:58:35;;;;;;;13.57;2.92;;;11.80;99.90;;;;;;6118467;23;20006;-85
2022/09/17 03:01:06;;;;;;;18.52;3.45;;;11.80;99.90;;;;;;6117810;23;20374;-86
2022/09/17 03:03:42;;;;;;;21.98;3.33;;;11.80;99.90;;;;;;6117060;23;20017;-86
2022/09/17 03:06:07;;;;;;;22.02;3.13;;;11.80;99.90;;;;;;6118464;23;20080;-85
2022/09/17 03:08:39;;;;;;;16.70;3.25;;;11.80;99.90;;;;;;6119747;23;20439;-85
2022/09/17 03:11:07;;;;;;;24.00;3.67;;;11.80;99.90;;;;;;6119342;23;20028;-84
2022/09/17 03:13:36;;;;;;;26.92;4.18;;;11.80;99.90;;;;;;6119536;23;20065;-86
2022/09/17 03:16:03;;;;;;;23.77;3.80;;;11.80;99.90;;;;;;6118808;23;20055;-85
2022/09/17 03:18:30;;;;;;;24.10;3.45;;;11.70;99.90;;;;;;6120084;23;20009;-86
2022/09/17 03:20:56;;;;;;;18.55;3.38;;;11.70;99.90;;;;;;6118060;23;20006;-86
2022/09/17 03:23:21;;;;;;;21.83;3.55;;;11.70;99.90;;;;;;6119216;23;20006;-87
2022/09/17 03:25:48;;;;;;;21.65;3.92;;;11.70;99.90;;;;;;6118997;23;20033;-82
2022/09/17 03:28:15;;;;;;;24.60;4.88;;;11.70;99.90;;;;;;6117789;23;20010;-83
2022/09/17 03:30:45;;;;;;;24.83;3.03;;;11.60;99.90;;;;;;6119401;23;20013;-85
2022/09/17 03:33:11;;;;;;;31.20;4.35;;;11.60;99.90;;;;;;6118079;23;20006;-84
2022/09/17 03:35:36;;;;;;;20.17;3.63;;;11.60;99.90;;;;;;6119289;23;20006;-88
2022/09/17 03:38:03;;;;;;;25.65;3.85;;;11.60;99.90;;;;;;6118826;23;20087;-84
2022/09/17 03:40:28;;;;;;;21.23;3.60;;;11.50;99.90;;;;;;6119421;23;20081;-84
2022/09/17 03:42:54;;;;;;;27.13;4.00;;;11.60;99.90;;;;;;6118027;23;20580;-84
2022/09/17 03:45:19;;;;;;;26.15;4.57;;;11.60;99.90;;;;;;6118210;23;20010;-85
2022/09/17 03:47:45;;;;;;;41.72;9.65;;;11.60;99.90;;;;;;6117768;23;20028;-86
2022/09/17 03:50:11;;;;;;;28.88;4.90;;;11.60;99.90;;;;;;6119829;23;20061;-86
2022/09/17 03:52:36;;;;;;;33.08;4.85;;;11.60;99.90;;;;;;6118452;23;20045;-86
2022/09/17 03:55:02;;;;;;;27.55;4.15;;;11.60;99.90;;;;;;6119884;23;20009;-87
2022/09/17 03:57:28;;;;;;;19.63;2.90;;;11.60;99.90;;;;;;6118716;23;20148;-87
2022/09/17 03:59:54;;;;;;;27.27;3.40;;;11.60;99.90;;;;;;6119644;23;20769;-87
2022/09/17 04:02:19;;;;;;;19.27;2.90;;;11.60;99.90;;;;;;6118269;23;20012;-84
2022/09/17 04:04:45;;;;;;;17.90;3.90;;;11.60;99.90;;;;;;6119296;23;20009;-87
2022/09/17 04:07:10;;;;;;;23.20;4.18;;;11.70;99.90;;;;;;6117947;23;20068;-88
2022/09/17 04:09:36;;;;;;;26.55;3.50;;;11.70;99.90;;;;;;6119406;23;20468;-84
2022/09/17 04:12:02;;;;;;;29.90;3.10;;;11.70;99.90;;;;;;6118472;23;20020;-85
2022/09/17 04:14:28;;;;;;;23.95;4.57;;;11.70;99.90;;;;;;6119456;23;20021;-82
2022/09/17 04:16:53;;;;;;;22.23;4.00;;;11.70;99.90;;;;;;6118408;23;20017;-84
2022/09/17 04:19:19;;;;;;;48.03;4.95;;;11.70;99.90;;;;;;6119460;23;19998;-84
2022/09/17 04:21:44;;;;;;;21.75;4.57;;;11.70;99.90;;;;;;6118291;23;20005;-84
2022/09/17 04:24:10;;;;;;;31.92;4.78;;;11.70;99.90;;;;;;6091566;23;20006;-87
2022/09/17 04:26:35;;;;;;;28.02;4.32;;;11.70;99.90;;;;;;6118585;23;20006;-83
2022/09/17 04:29:01;;;;;;;23.17;3.80;;;11.70;99.90;;;;;;6118580;23;20077;-81
2022/09/17 04:31:26;;;;;;;33.53;5.00;;;11.70;99.90;;;;;;6117333;23;20055;-87
2022/09/17 04:33:52;;;;;;;20.27;3.22;;;11.70;99.90;;;;;;6118119;23;20331;-87
2022/09/17 04:36:18;;;;;;;31.92;4.22;;;11.80;99.90;;;;;;6117241;23;20003;-82
2022/09/17 04:38:48;;;;;;;28.35;7.15;;;11.80;99.90;;;;;;6118377;23;20009;-87
2022/09/17 04:41:13;;;;;;;32.85;4.22;;;11.80;99.90;;;;;;6117744;23;20315;-81
2022/09/17 04:43:39;;;;;;;32.80;6.28;;;11.80;99.90;;;;;;6119109;23;20022;-89
2022/09/17 04:46:06;;;;;;;26.92;4.20;;;11.70;99.90;;;;;;6119653;23;20089;-87
2022/09/17 04:48:34;;;;;;;32.78;4.18;;;11.70;99.90;;;;;;6118885;23;20002;-86
2022/09/17 04:51:00;;;;;;;31.58;5.28;;;11.70;99.90;;;;;;6117799;23;20013;-82
2022/09/17 04:53:25;;;;;;;29.65;4.68;;;11.70;99.90;;;;;;6116183;23;20006;-87
2022/09/17 04:55:51;;;;;;;30.92;3.50;;;11.70;99.90;;;;;;6119436;23;20033;-84
2022/09/17 04:58:17;;;;;;;31.13;4.05;;;11.70;99.90;;;;;;6117002;23;20006;-84
2022/09/17 05:00:42;;;;;;;26.92;4.40;;;11.70;99.90;;;;;;6118731;23;20139;-86
2022/09/17 05:03:08;;;;;;;28.17;3.90;;;11.70;99.90;;;;;;6118221;23;20067;-86
2022/09/17 05:05:33;;;;;;;28.48;5.90;;;11.70;99.90;;;;;;6118844;23;20006;-87
2022/09/17 05:07:59;;;;;;;30.98;5.90;;;11.70;99.90;;;;;;6118000;23;20002;-85
2022/09/17 05:10:25;;;;;;;34.83;4.68;;;11.70;99.90;;;;;;6118080;23;20002;-85
2022/09/17 05:12:53;;;;;;;26.90;4.75;;;11.70;99.90;;;;;;6117334;23;20094;-85
2022/09/17 05:15:19;;;;;;;23.77;3.90;;;11.70;99.90;;;;;;6118965;23;20002;-85
2022/09/17 05:17:45;;;;;;;23.83;3.67;;;11.80;99.90;;;;;;6117712;23;20328;-88
2022/09/17 05:20:11;;;;;;;19.30;3.50;;;11.70;99.90;;;;;;6119623;23;20002;-86
2022/09/17 05:22:44;;;;;;;29.67;3.58;;;11.80;99.90;;;;;;6115656;23;20435;-87
2022/09/17 05:25:12;;;;;;;19.27;3.28;;;11.80;99.90;;;;;;6119107;23;20005;-83
2022/09/17 05:27:38;;;;;;;25.83;4.20;;;11.70;99.90;;;;;;6117126;23;20390;-83
2022/09/17 05:30:06;;;;;;;30.52;4.00;;;11.70;99.90;;;;;;6118310;23;20091;-82
2022/09/17 05:32:32;;;;;;;25.23;3.65;;;11.70;99.90;;;;;;6117745;23;20010;-85
2022/09/17 05:34:57;;;;;;;22.40;4.18;;;11.70;99.90;;;;;;6119152;23;20030;-86
2022/09/17 05:37:23;;;;;;;18.30;3.22;;;11.70;99.90;;;;;;6117984;23;20013;-83
2022/09/17 05:39:48;;;;;;;25.55;3.80;;;11.70;99.90;;;;;;6118644;23;20033;-86
2022/09/17 05:42:14;;;;;;;22.02;3.78;;;11.70;99.90;;;;;;6116368;23;19998;-85
2022/09/17 05:44:45;;;;;;;34.53;5.57;;;11.70;99.90;;;;;;6115448;23;20041;-89
2022/09/17 05:47:14;;;;;;;21.70;4.93;;;11.70;99.90;;;;;;6114866;23;20013;-87
2022/09/17 05:49:40;;;;;;;29.90;6.30;;;11.70;99.90;;;;;;6116870;23;20017;-85
2022/09/17 05:52:06;;;;;;;22.98;3.50;;;11.70;99.90;;;;;;6116613;23;20021;-83
2022/09/17 05:54:32;;;;;;;22.05;4.45;;;11.70;99.90;;;;;;6118434;23;20002;-86
2022/09/17 05:56:57;;;;;;;28.88;4.45;;;11.70;99.90;;;;;;6117143;23;20008;-89
2022/09/17 05:59:24;;;;;;;31.55;3.97;;;11.70;99.90;;;;;;6117729;23;20002;-89
2022/09/17 06:01:49;;;;;;;14.98;3.45;;;11.60;99.90;;;;;;6117064;23;20059;-89
2022/09/17 06:04:16;;;;;;;21.35;2.72;;;11.70;99.90;;;;;;6091833;23;20006;-89
2022/09/17 06:06:42;;;;;;;24.90;3.58;;;11.70;99.90;;;;;;6116732;23;20009;-86
2022/09/17 06:09:08;;;;;;;22.80;3.90;;;11.60;99.90;;;;;;6114037;23;20010;-84
2022/09/17 06:11:34;;;;;;;24.83;3.83;;;11.60;99.90;;;;;;6115061;23;20076;-86
2022/09/17 06:14:00;;;;;;;18.98;3.22;;;11.60;99.90;;;;;;6116622;23;20006;-88
2022/09/17 06:16:26;;;;;;;18.30;3.15;;;11.60;99.90;;;;;;6092391;23;20008;-90
2022/09/17 06:18:51;;;;;;;17.90;2.55;;;11.60;99.90;;;;;;6117629;23;20340;-85
2022/09/17 06:21:20;;;;;;;23.88;3.10;;;11.60;99.90;;;;;;6116743;23;20009;-86
2022/09/17 06:23:49;;;;;;;27.45;3.55;;;11.60;99.90;;;;;;6115809;23;20006;-88
2022/09/17 06:26:16;;;;;;;19.23;4.03;;;11.60;99.90;;;;;;6118953;23;20002;-89
2022/09/17 06:28:45;;;;;;;18.83;3.22;;;11.60;99.90;;;;;;6116455;23;20006;-84
2022/09/17 06:31:12;;;;;;;19.10;3.60;;;11.70;99.90;;;;;;6118044;23;20423;-89
2022/09/17 06:33:40;;;;;;;22.25;3.67;;;11.70;99.90;;;;;;6117945;23;20014;-87
2022/09/17 06:36:09;;;;;;;20.98;2.88;;;11.70;99.90;;;;;;6120201;23;20006;-88
2022/09/17 06:38:35;;;;;;;24.42;3.20;;;11.70;99.90;;;;;;6119056;23;20010;-84
2022/09/17 06:41:01;;;;;;;24.95;3.58;;;11.70;99.90;;;;;;6120272;23;20446;-85
2022/09/17 06:43:27;;;;;;;25.60;3.90;;;11.70;99.90;;;;;;6118818;23;20002;-88
2022/09/17 06:45:57;;;;;;;19.45;3.20;;;11.70;99.90;;;;;;6119782;23;20002;-87
2022/09/17 06:48:23;;;;;;;21.02;3.72;;;11.70;99.90;;;;;;6117831;23;20673;-90
2022/09/17 06:50:50;;;;;;;12.52;2.63;;;11.80;99.90;;;;;;6118965;23;20089;-84
2022/09/17 06:53:16;;;;;;;17.48;3.13;;;11.80;99.90;;;;;;6118627;23;20010;-88
2022/09/17 06:55:42;;;;;;;16.23;2.70;;;11.80;99.90;;;;;;6119283;23;20006;-87
2022/09/17 06:58:08;;;;;;;24.20;3.60;;;11.80;99.90;;;;;;6117060;23;20017;-89
2022/09/17 07:00:36;;;;;;;17.75;2.92;;;11.80;99.90;;;;;;6119458;23;20013;-90
2022/09/17 07:03:02;;;;;;;28.40;4.38;;;11.80;99.90;;;;;;6118421;23;20012;-84
2022/09/17 07:05:29;;;;;;;21.77;3.03;;;11.90;99.90;;;;;;6119368;23;20026;-86
2022/09/17 07:07:55;;;;;;;16.00;2.38;;;11.90;99.90;;;;;;6119037;23;20009;-91
2022/09/17 07:10:22;;;;;;;21.58;3.80;;;11.90;99.90;;;;;;6120305;23;20002;-85
2022/09/17 07:12:48;;;;;;;21.20;3.15;;;11.90;99.90;;;;;;6118081;23;20010;-89
2022/09/17 07:15:14;;;;;;;15.18;3.05;;;12.00;99.90;;;;;;6119058;23;20033;-86
2022/09/17 07:17:50;;;;;;;13.93;2.90;;;11.90;99.90;;;;;;6118294;23;19998;-92
2022/09/17 07:20:16;;;;;;;12.93;2.88;;;12.00;99.90;;;;;;6119642;23;20025;-91
2022/09/17 07:22:44;;;;;;;17.73;2.40;;;12.00;99.90;;;;;;6118485;23;20416;-85
2022/09/17 07:25:10;;;;;;;20.00;2.95;;;12.00;99.90;;;;;;6117102;23;20006;-87
2022/09/17 07:27:42;;;;;;;9.80;2.70;;;12.00;99.90;;;;;;6118735;23;20056;-88
2022/09/17 07:30:08;;;;;;;20.35;3.30;;;12.10;99.90;;;;;;6118427;23;20037;-86
2022/09/17 07:32:34;;;;;;;16.38;3.20;;;12.00;99.90;;;;;;6115807;23;20449;-84
2022/09/17 07:34:59;;;;;;;14.95;3.28;;;12.00;99.90;;;;;;6117271;23;20061;-88
2022/09/17 07:37:25;;;;;;;21.42;3.38;;;12.00;99.90;;;;;;6116936;23;20081;-91
2022/09/17 07:39:50;;;;;;;16.45;2.60;;;12.00;99.90;;;;;;6120587;23;19998;-92
2022/09/17 07:42:16;;;;;;;29.75;5.47;;;12.00;99.90;;;;;;6119790;23;20485;-89
2022/09/17 07:44:45;;;;;;;15.25;3.33;;;12.00;99.90;;;;;;6119297;23;20743;-85
2022/09/17 07:47:11;;;;;;;28.83;4.20;;;12.00;99.90;;;;;;6119307;23;20533;-91
2022/09/17 07:49:37;;;;;;;27.13;4.38;;;12.00;99.90;;;;;;6119890;23;20006;-82
2022/09/17 07:52:05;;;;;;;28.27;3.33;;;12.10;99.90;;;;;;6119086;23;20052;-84
2022/09/17 07:54:35;;;;;;;18.13;3.05;;;12.00;99.90;;;;;;6120777;23;20002;-91
2022/09/17 07:57:01;;;;;;;15.63;3.08;;;12.10;99.90;;;;;;6119770;23;19998;-86
2022/09/17 07:59:26;;;;;;;24.55;4.40;;;12.10;99.90;;;;;;6120505;23;20005;-85
2022/09/17 08:01:52;;;;;;;14.00;2.75;;;12.10;99.90;;;;;;6119491;23;20017;-85
2022/09/17 08:04:18;;;;;;;26.17;3.17;;;12.10;99.90;;;;;;6120670;23;20001;-89
2022/09/17 08:06:48;;;;;;;15.98;2.92;;;12.10;99.90;;;;;;6121280;23;20085;-91
2022/09/17 08:09:15;;;;;;;29.40;4.40;;;12.20;99.90;;;;;;6120635;23;20013;-83
2022/09/17 08:11:48;;;;;;;20.17;3.60;;;12.30;99.90;;;;;;6120133;23;20252;-86
2022/09/17 08:14:15;;;;;;;19.80;3.08;;;12.30;99.90;;;;;;6118903;23;20443;-88
2022/09/17 08:16:49;;;;;;;19.38;2.72;;;12.40;99.90;;;;;;6120777;23;20002;-84
2022/09/17 08:19:16;;;;;;;20.43;3.63;;;12.50;99.90;;;;;;6120272;23;20010;-90
2022/09/17 08:21:46;;;;;;;24.98;3.03;;;12.50;99.90;;;;;;6120746;23;20229;-84
2022/09/17 08:24:11;;;;;;;30.27;4.90;;;12.50;99.90;;;;;;6119200;23;20009;-85
2022/09/17 08:26:38;;;;;;;25.15;4.15;;;12.50;99.90;;;;;;6120461;23;19998;-86
2022/09/17 08:29:04;;;;;;;20.95;3.47;;;12.50;99.90;;;;;;6119438;23;20010;-90
2022/09/17 08:31:32;;;;;;;31.10;5.95;;;12.60;99.90;;;;;;6120077;23;20013;-85
2022/09/17 08:33:58;;;;;;;31.52;3.22;;;12.60;99.90;;;;;;6118709;23;20017;-92
2022/09/17 08:36:25;;;;;;;20.95;3.25;;;12.60;99.90;;;;;;6120169;23;20010;-93
2022/09/17 08:38:54;;;;;;;24.13;4.32;;;12.60;99.90;;;;;;6119558;23;20018;-88
2022/09/17 08:41:38;;;;;;;16.10;3.33;;;12.50;99.90;;;;;;6120627;23;20319;-90
2022/09/17 08:44:05;;;;;;;19.35;3.35;;;12.60;99.90;;;;;;6119871;23;20386;-86
2022/09/17 08:47:04;;;;;;;19.92;3.65;;;12.60;99.90;;;;;;6119824;23;20428;-86
2022/09/17 08:49:36;;;;;;;24.27;4.03;;;12.60;99.90;;;;;;6120799;23;20006;-91
2022/09/17 08:52:14;;;;;;;25.08;4.43;;;12.60;99.90;;;;;;6118978;23;20056;-80
2022/09/17 08:55:04;;;;;;;27.02;3.78;;;12.60;99.90;;;;;;6119746;23;20002;-85
2022/09/17 08:57:51;;;;;;;21.17;3.40;;;12.70;99.90;;;;;;6118613;23;20308;-90
2022/09/17 09:00:19;;;;;;;25.83;3.58;;;12.70;99.90;;;;;;6120344;23;20009;-87
2022/09/17 09:02:54;;;;;;;17.63;3.30;;;12.80;99.90;;;;;;6118643;23;20033;-90
2022/09/17 09:05:25;;;;;;;22.92;3.88;;;12.90;99.90;;;;;;6119853;23;20485;-85
2022/09/17 09:08:01;;;;;;;32.33;4.13;;;13.00;99.90;;;;;;6118745;23;20002;-88
2022/09/17 09:10:50;;;;;;;24.83;3.78;;;13.10;99.90;;;;;;6119640;23;20002;-84
2022/09/17 09:13:19;;;;;;;29.67;4.32;;;13.20;99.90;;;;;;6118921;23;20002;-90
2022/09/17 09:15:54;;;;;;;29.33;4.90;;;13.30;99.90;;;;;;6119725;23;20010;-84
2022/09/17 09:18:26;;;;;;;30.52;4.90;;;13.30;99.90;;;;;;6118684;23;20427;-87
2022/09/17 09:21:11;;;;;;;29.48;3.90;;;13.30;99.90;;;;;;6119643;23;20092;-83
2022/09/17 09:24:16;;;;;;;24.35;3.33;;;13.30;99.90;;;;;;6118727;23;20002;-85
2022/09/17 09:27:20;;;;;;;16.83;3.28;;;13.30;99.90;;;;;;6119694;23;20013;-84
2022/09/17 09:30:04;;;;;;;25.25;3.92;;;13.40;99.90;;;;;;6118918;23;20073;-88
2022/09/17 09:32:51;;;;;;;14.80;2.90;;;13.50;99.90;;;;;;6118411;23;20007;-86
2022/09/17 09:35:26;;;;;;;26.25;3.80;;;13.50;99.90;;;;;;6119394;23;20002;-88
2022/09/17 09:38:23;;;;;;;24.23;3.35;;;13.40;99.90;;;;;;6118129;23;20009;-89
2022/09/17 09:41:13;;;;;;;25.05;3.10;;;13.50;99.90;;;;;;6119539;23;20010;-91
2022/09/17 09:44:01;;;;;;;20.35;3.47;;;13.50;99.90;;;;;;6118276;23;20071;-85
2022/09/17 09:47:05;;;;;;;21.30;3.55;;;13.50;99.90;;;;;;6119188;23;19998;-86
2022/09/17 09:49:53;;;;;;;29.02;3.10;;;13.50;99.90;;;;;;6118758;23;20513;-85
2022/09/17 09:52:35;;;;;;;20.48;3.58;;;13.60;99.90;;;;;;6118234;23;20419;-89
2022/09/17 09:55:01;;;;;;;20.42;2.60;;;13.80;99.90;;;;;;6119415;23;20005;-85
2022/09/17 09:57:54;;;;;;;14.93;3.13;;;14.00;99.90;;;;;;6118607;23;20382;-88
2022/09/17 10:00:34;;;;;;;16.25;2.88;;;14.10;99.90;;;;;;6119690;23;20006;-81
2022/09/17 10:03:03;;;;;;;21.90;3.10;;;14.00;99.90;;;;;;6118272;23;20064;-83
2022/09/17 10:05:29;;;;;;;19.15;2.92;;;13.90;99.90;;;;;;6119374;23;20005;-82
2022/09/17 10:07:55;;;;;;;13.85;2.60;;;13.90;99.90;;;;;;6117941;23;20489;-84
2022/09/17 10:10:21;;;;;;;17.65;3.10;;;14.00;99.90;;;;;;6120794;23;20002;-84
2022/09/17 10:13:05;;;;;;;9.88;2.35;;;14.10;99.90;;;;;;6119849;23;20340;-85
2022/09/17 10:15:30;;;;;;;18.23;2.53;;;14.10;99.90;;;;;;6120713;23;20002;-86
2022/09/17 10:18:18;;;;;;;17.05;2.80;;;14.20;99.90;;;;;;6119807;23;20021;-85
2022/09/17 10:20:58;;;;;;;16.30;2.78;;;14.10;99.90;;;;;;6120552;23;20006;-85
2022/09/17 10:23:32;;;;;;;29.80;4.25;;;14.00;99.90;;;;;;6119434;23;20020;-90
2022/09/17 10:25:58;;;;;;;16.23;3.35;;;14.00;99.90;;;;;;6120690;23;20084;-87
2022/09/17 10:28:35;;;;;;;10.75;2.42;;;14.00;99.90;;;;;;6119671;23;20438;-92
2022/09/17 10:31:05;;;;;;;10.63;2.67;;;14.00;99.90;;;;;;6120629;23;20408;-88
2022/09/17 10:33:32;;;;;;;17.10;3.67;;;14.10;99.90;;;;;;6119189;23;20013;-86
2022/09/17 10:36:05;;;;;;;15.15;2.53;;;14.30;99.90;;;;;;6120396;23;20002;-88
2022/09/17 10:38:37;;;;;;;14.75;2.65;;;14.40;99.90;;;;;;6119535;23;20002;-87
2022/09/17 10:41:21;;;;;;;15.63;2.53;;;14.50;99.90;;;;;;6120162;23;20010;-90
2022/09/17 10:43:53;;;;;;;19.08;4.07;;;14.50;99.80;;;;;;6118806;23;20463;-87
2022/09/17 10:46:25;;;;;;;15.10;2.30;;;14.60;98.20;;;;;;6120665;23;20412;-83
2022/09/17 10:49:11;;;;;;;14.68;3.10;;;14.60;99.00;;;;;;6118993;23;20005;-87
2022/09/17 10:51:37;;;;;;;20.45;2.72;;;14.60;97.60;;;;;;6120505;23;20082;-90
2022/09/17 10:54:12;;;;;;;20.65;3.03;;;14.60;99.60;;;;;;6119455;23;20056;-84
2022/09/17 10:56:43;;;;;;;16.80;2.78;;;14.60;97.90;;;;;;6120347;23;19998;-87
2022/09/17 10:59:29;;;;;;;29.45;5.20;;;14.50;99.90;;;;;;6118932;23;20010;-84
2022/09/17 11:02:37;;;;;;;16.33;3.60;;;14.50;99.90;;;;;;6120158;23;20017;-87
2022/09/17 11:05:33;;;;;;;18.23;2.97;;;14.40;99.90;;;;;;6120927;23;20016;-86
2022/09/17 11:08:16;;;;;;;23.60;3.28;;;14.40;99.90;;;;;;6118950;23;20073;-86
2022/09/17 11:11:31;;;;;;;11.68;3.17;;;14.40;99.90;;;;;;6119971;23;20002;-90
2022/09/17 11:14:16;;;;;;;12.52;2.45;;;14.50;99.90;;;;;;6149814;23;20136;-84
2022/09/17 11:17:10;;;;;;;11.57;2.58;;;14.70;99.90;;;;;;6151463;23;20006;-84
2022/09/17 11:19:55;;;;;;;22.45;3.58;;;14.80;99.90;;;;;;6122623;23;20089;-84
2022/09/17 11:22:35;;;;;;;9.60;1.95;;;14.80;99.90;;;;;;6120095;23;20056;-87
2022/09/17 11:25:32;;;;;;;15.23;2.63;;;14.90;99.90;;;;;;6120062;23;20091;-88
2022/09/17 11:28:08;;;;;;;13.95;2.50;;;15.10;99.90;;;;;;6119229;23;20006;-84
2022/09/17 11:31:07;;;;;;;14.57;2.40;;;15.10;98.00;;;;;;6120224;23;20002;-87
2022/09/17 11:33:50;;;;;;;16.35;2.90;;;15.10;97.80;;;;;;6118957;23;20013;-84
2022/09/17 11:36:24;;;;;;;15.32;2.55;;;14.90;96.90;;;;;;6120176;23;20422;-90
2022/09/17 11:38:51;;;;;;;11.13;2.35;;;14.90;93.60;;;;;;6119090;23;20071;-84
2022/09/17 11:41:22;;;;;;;12.48;2.55;;;15.00;97.10;;;;;;6120377;23;20081;-84
2022/09/17 11:44:06;;;;;;;21.92;3.00;;;15.10;97.60;;;;;;6118626;23;20335;-87
2022/09/17 11:46:45;;;;;;;12.60;2.50;;;15.30;93.20;;;;;;6119996;23;20504;-87
2022/09/17 11:49:27;;;;;;;14.85;2.53;;;15.30;89.00;;;;;;6119479;23;20279;-84
2022/09/17 11:52:01;;;;;;;12.18;2.45;;;15.30;86.60;;;;;;6120100;23;20088;-86
2022/09/17 11:55:20;;;;;;;10.10;2.13;;;15.20;85.00;;;;;;6119315;23;20026;-87
2022/09/17 11:57:47;;;;;;;15.68;2.38;;;15.10;86.00;;;;;;6130981;23;20037;-86
2022/09/17 12:00:16;;;;;;;10.55;2.38;;;15.10;87.00;;;;;;6120378;23;20043;-87
2022/09/17 12:03:05;;;;;;;10.50;2.00;;;15.10;91.00;;;;;;6119177;23;20002;-85
2022/09/17 12:05:33;;;;;;;11.23;2.10;;;15.20;93.20;;;;;;6119844;23;20026;-90
2022/09/17 12:08:14;;;;;;;10.60;2.33;;;15.40;92.70;;;;;;6118734;23;20444;-89
2022/09/17 12:10:54;;;;;;;17.08;3.72;;;15.60;93.20;;;;;;6120073;23;19998;-86
2022/09/17 12:13:53;;;;;;;8.65;2.10;;;15.60;90.50;;;;;;6119447;23;20013;-88
2022/09/17 12:16:26;;;;;;;20.67;2.92;;;15.70;88.00;;;;;;6119998;23;20002;-88
2022/09/17 12:19:04;;;;;;;12.38;2.00;;;15.50;87.00;;;;;;6118774;23;20002;-88
2022/09/17 12:21:35;;;;;;;13.48;2.50;;;15.40;89.80;;;;;;6120421;23;20006;-88
2022/09/17 12:24:27;;;;;;;11.85;2.35;;;15.40;90.00;;;;;;6118861;23;20002;-88
2022/09/17 12:27:23;;;;;;;7.35;2.00;;;15.40;83.60;;;;;;6119489;23;20454;-88
2022/09/17 12:30:04;;;;;;;15.77;2.20;;;15.30;82.10;;;;;;6119074;23;20068;-87
2022/09/17 12:32:38;;;;;;;10.15;2.30;;;15.30;82.80;;;;;;6119797;23;20006;-89
2022/09/17 12:35:26;;;;;;;13.32;3.47;;;15.20;82.10;;;;;;6118832;23;20017;-89
2022/09/17 12:38:12;;;;;;;19.02;2.60;;;15.00;88.80;;;;;;6118731;23;20024;-87
2022/09/17 12:40:56;;;;;;;6.13;1.63;;;14.90;90.10;;;;;;6119630;23;20469;-90
2022/09/17 12:43:48;;;;;;;9.85;1.70;;;14.70;82.10;;;;;;6118729;23;20033;-87
2022/09/17 12:46:42;;;;;;;6.15;1.92;;;14.50;85.50;;;;;;6119888;23;19998;-86
2022/09/17 12:49:34;;;;;;;6.47;1.83;;;14.60;86.00;;;;;;6123406;23;20014;-88
2022/09/17 12:52:05;;;;;;;10.07;1.73;;;14.70;89.10;;;;;;6119643;23;20008;-86
2022/09/17 12:54:52;;;;;;;9.85;1.90;;;14.90;90.30;;;;;;6118584;23;20100;-87
2022/09/17 12:57:33;;;;;;;15.63;2.50;;;15.00;90.30;;;;;;6119956;23;20013;-87
2022/09/17 13:00:12;;;;;;;15.40;2.47;;;15.20;90.70;;;;;;6118995;23;19998;-87
2022/09/17 13:02:50;;;;;;;9.30;2.22;;;15.20;93.20;;;;;;6119810;23;20026;-86
2022/09/17 13:05:45;;;;;;;18.30;2.40;;;15.50;93.20;;;;;;6120141;23;20009;-88
2022/09/17 13:08:29;;;;;;;9.25;1.90;;;15.70;91.00;;;;;;6118309;23;20370;-94
2022/09/17 13:11:29;;;;;;;11.23;1.80;;;15.80;86.90;;;;;;6119936;23;20006;-90